createdAt,value
2022-08-14T00:01:30.948Z,9.10
2022-08-14T00:04:34.345Z,5.07
2022-08-14T00:07:25.917Z,6.80
2022-08-14T00:10:51.799Z,5.70
2022-08-14T00:13:24.970Z,4.83
2022-08-14T00:16:41.804Z,5.77
2022-08-14T00:19:22.822Z,5.47
2022-08-14T00:22:09.483Z,6.93
2022-08-14T00:24:56.328Z,6.63
2022-08-14T00:27:44.077Z,5.27
2022-08-14T00:30:36.510Z,6.13
2022-08-14T00:33:52.496Z,6.00
2022-08-14T00:36:48.287Z,6.30
2022-08-14T00:39:35.703Z,5.90
2022-08-14T00:42:55.530Z,8.87
2022-08-14T00:45:30.473Z,6.10
2022-08-14T00:48:34.468Z,7.00
2022-08-14T00:51:23.776Z,6.03
2022-08-14T00:54:22.912Z,7.93
2022-08-14T00:57:09.712Z,6.07
2022-08-14T00:59:57.356Z,6.00
2022-08-14T01:19:46.829Z,7.13
2022-08-14T01:22:37.571Z,10.80
2022-08-14T01:25:29.729Z,6.87
2022-08-14T01:28:34.386Z,8.40
2022-08-14T01:31:24.451Z,7.30
2022-08-14T01:35:18.855Z,7.10
2022-08-14T01:37:17.601Z,8.77
2022-08-14T01:40:08.132Z,9.07
2022-08-14T01:42:57.701Z,8.10
2022-08-14T01:45:49.083Z,7.73
2022-08-14T01:48:53.837Z,8.33
2022-08-14T01:51:41.691Z,7.47
2022-08-14T01:54:33.810Z,8.47
2022-08-14T01:57:49.449Z,11.90
2022-08-14T02:00:38.749Z,7.00
2022-08-14T02:03:29.583Z,8.10
2022-08-14T02:06:33.053Z,7.27
2022-08-14T02:09:22.544Z,9.30
2022-08-14T02:12:10.346Z,7.90
2022-08-14T02:15:15.252Z,8.60
2022-08-14T02:18:04.347Z,8.40
2022-08-14T02:20:51.391Z,8.70
2022-08-14T02:23:37.947Z,7.90
2022-08-14T02:26:29.718Z,8.20
2022-08-14T02:29:22.210Z,7.87
2022-08-14T02:32:19.986Z,7.80
2022-08-14T02:35:18.758Z,10.73
2022-08-14T02:38:06.175Z,9.40
2022-08-14T02:40:58.824Z,8.80
2022-08-14T02:43:46.349Z,14.30
2022-08-14T02:46:34.967Z,9.27
2022-08-14T02:49:33.904Z,9.00
2022-08-14T02:52:56.049Z,10.57
2022-08-14T02:55:27.661Z,8.57
2022-08-14T02:58:29.286Z,8.97
2022-08-14T03:01:20.224Z,9.10
2022-08-14T03:04:11.190Z,7.90
2022-08-14T03:07:07.224Z,8.00
2022-08-14T03:10:27.129Z,10.70
2022-08-14T03:13:04.007Z,11.83
2022-08-14T03:15:55.467Z,10.23
2022-08-14T03:18:44.393Z,9.33
2022-08-14T03:21:31.721Z,9.13
2022-08-14T03:24:23.251Z,8.80
2022-08-14T03:27:14.004Z,10.10
2022-08-14T03:30:00.619Z,9.90
2022-08-14T03:32:52.355Z,10.13
2022-08-14T03:36:00.038Z,9.17
2022-08-14T03:39:13.318Z,10.47
2022-08-14T03:42:02.071Z,10.03
2022-08-14T03:45:19.617Z,10.33
2022-08-14T03:47:58.639Z,9.60
2022-08-14T03:50:47.043Z,10.13
2022-08-14T03:53:37.281Z,11.50
2022-08-14T03:56:25.893Z,10.03
2022-08-14T03:59:18.046Z,10.27
2022-08-14T04:02:31.926Z,11.23
2022-08-14T04:05:13.173Z,10.93
2022-08-14T04:08:23.162Z,9.83
2022-08-14T04:11:10.699Z,11.63
2022-08-14T04:13:57.236Z,11.63
2022-08-14T04:16:46.337Z,14.47
2022-08-14T04:19:36.485Z,11.27
2022-08-14T04:22:24.618Z,11.40
2022-08-14T04:25:11.579Z,11.23
2022-08-14T04:28:02.243Z,11.50
2022-08-14T04:30:50.376Z,11.90
2022-08-14T04:33:38.587Z,12.10
2022-08-14T04:36:25.706Z,10.77
2022-08-14T04:39:29.446Z,11.20
2022-08-14T04:42:36.013Z,18.53
2022-08-14T04:45:29.517Z,13.27
2022-08-14T04:48:36.721Z,14.40
2022-08-14T04:51:46.432Z,23.77
2022-08-14T04:54:34.431Z,38.23
2022-08-14T04:57:21.268Z,42.60
2022-08-14T05:00:16.208Z,32.60
2022-08-14T05:03:07.409Z,39.27
2022-08-14T05:05:55.998Z,31.43
2022-08-14T05:08:56.648Z,26.90
2022-08-14T05:11:47.521Z,21.23
2022-08-14T05:14:45.837Z,17.83
2022-08-14T05:17:43.947Z,18.70
2022-08-14T05:21:05.033Z,19.13
2022-08-14T05:23:41.918Z,20.17
2022-08-14T05:26:30.044Z,14.73
2022-08-14T05:29:16.984Z,13.43
2022-08-14T05:32:07.352Z,13.57
2022-08-14T05:34:57.525Z,12.40
2022-08-14T05:37:46.153Z,12.40
2022-08-14T05:40:32.915Z,13.23
2022-08-14T05:43:21.220Z,15.53
2022-08-14T05:46:08.174Z,15.90
2022-08-14T05:48:57.317Z,18.13
2022-08-14T05:51:46.853Z,23.27
2022-08-14T05:54:35.628Z,22.77
2022-08-14T05:57:22.805Z,25.33
2022-08-14T06:00:13.441Z,21.27
2022-08-14T06:03:14.834Z,20.00
2022-08-14T06:06:01.141Z,16.83
2022-08-14T06:08:48.212Z,25.23
2022-08-14T06:11:34.726Z,18.50
2022-08-14T06:14:24.158Z,15.63
2022-08-14T06:17:24.715Z,12.90
2022-08-14T06:20:14.465Z,11.83
2022-08-14T06:23:00.972Z,10.93
2022-08-14T06:25:53.426Z,12.50
2022-08-14T06:28:40.511Z,11.13
2022-08-14T06:31:32.249Z,10.43
2022-08-14T06:35:10.400Z,10.67
2022-08-14T06:37:27.583Z,10.93
2022-08-14T06:40:25.696Z,10.70
2022-08-14T06:43:15.776Z,13.20
2022-08-14T06:46:04.049Z,10.00
2022-08-14T06:48:51.110Z,10.00
2022-08-14T06:51:44.914Z,10.80
2022-08-14T06:54:32.358Z,11.33
2022-08-14T06:57:21.596Z,10.80
2022-08-14T07:00:10.165Z,9.90
2022-08-14T07:03:26.186Z,10.63
2022-08-14T07:06:21.508Z,11.80
2022-08-14T07:09:23.076Z,9.40
2022-08-14T07:12:10.115Z,11.57
2022-08-14T07:15:16.518Z,9.60
2022-08-14T07:18:08.573Z,10.47
2022-08-14T07:20:56.733Z,10.83
2022-08-14T07:23:44.105Z,10.90
2022-08-14T07:26:32.921Z,11.10
2022-08-14T07:29:24.078Z,9.83
2022-08-14T07:32:12.822Z,17.83
2022-08-14T07:35:09.120Z,11.93
2022-08-14T07:37:56.117Z,10.60
2022-08-14T07:40:43.603Z,11.63
2022-08-14T07:43:33.658Z,15.50
2022-08-14T07:46:21.381Z,10.23
2022-08-14T07:49:17.974Z,9.40
2022-08-14T07:52:05.589Z,11.63
2022-08-14T07:54:55.311Z,9.30
2022-08-14T07:57:43.454Z,9.70
2022-08-14T08:00:33.414Z,7.60
2022-08-14T08:03:23.568Z,8.10
2022-08-14T08:06:17.446Z,8.50
2022-08-14T08:09:04.871Z,9.33
2022-08-14T08:11:54.613Z,7.20
2022-08-14T08:14:56.102Z,7.30
2022-08-14T08:17:53.762Z,7.30
2022-08-14T08:20:53.498Z,9.90
2022-08-14T08:23:50.952Z,7.20
2022-08-14T08:26:38.098Z,5.80
2022-08-14T08:29:28.985Z,6.73
2022-08-14T08:32:16.029Z,7.23
2022-08-14T08:35:03.921Z,5.97
2022-08-14T08:37:53.804Z,6.17
2022-08-14T08:40:50.080Z,5.40
2022-08-14T08:43:38.139Z,5.70
2022-08-14T08:46:25.069Z,5.37
2022-08-14T08:49:11.615Z,4.90
2022-08-14T08:52:04.533Z,4.87
2022-08-14T08:54:54.887Z,5.40
2022-08-14T08:57:41.231Z,4.80
2022-08-14T09:00:33.944Z,4.27
2022-08-14T09:03:22.907Z,5.10
2022-08-14T09:07:01.207Z,4.77
2022-08-14T09:09:22.497Z,4.30
2022-08-14T09:12:13.980Z,4.63
2022-08-14T09:15:03.308Z,4.72
2022-08-14T09:17:49.936Z,7.63
2022-08-14T09:20:39.311Z,4.40
2022-08-14T09:23:49.484Z,9.23
2022-08-14T09:26:38.454Z,5.40
2022-08-14T09:29:28.776Z,6.47
2022-08-14T09:32:58.965Z,4.10
2022-08-14T09:35:41.688Z,4.43
2022-08-14T09:38:36.772Z,4.72
2022-08-14T09:42:20.658Z,4.20
2022-08-14T09:45:07.854Z,10.93
2022-08-14T09:47:57.348Z,3.60
2022-08-14T09:50:48.012Z,3.97
2022-08-14T09:54:12.750Z,3.83
2022-08-14T09:56:57.410Z,4.45
2022-08-14T09:59:50.389Z,4.07
2022-08-14T10:02:37.518Z,4.05
2022-08-14T10:05:34.701Z,3.38
2022-08-14T10:08:26.218Z,3.63
2022-08-14T10:11:19.550Z,3.20
2022-08-14T10:14:29.401Z,3.45
2022-08-14T10:17:27.516Z,5.53
2022-08-14T10:20:39.698Z,3.70
2022-08-14T10:23:30.039Z,3.17
2022-08-14T10:26:28.115Z,3.20
2022-08-14T10:29:23.614Z,3.60
2022-08-14T10:32:17.392Z,2.70
2022-08-14T10:35:13.672Z,2.90
2022-08-14T10:38:03.988Z,2.70
2022-08-14T10:40:59.127Z,4.05
2022-08-14T10:44:08.364Z,2.70
2022-08-14T10:47:39.724Z,3.35
2022-08-14T10:50:18.422Z,3.08
2022-08-14T10:53:06.065Z,2.80
2022-08-14T10:56:00.152Z,3.10
2022-08-14T10:58:50.349Z,2.65
2022-08-14T11:01:41.910Z,2.90
2022-08-14T11:04:30.883Z,7.25
2022-08-14T11:07:21.215Z,2.63
2022-08-14T11:10:10.515Z,2.80
2022-08-14T11:12:58.691Z,3.20
2022-08-14T11:15:46.901Z,3.00
2022-08-14T11:18:36.021Z,2.90
2022-08-14T11:21:30.239Z,4.20
2022-08-14T11:24:50.821Z,2.67
2022-08-14T11:27:33.060Z,2.47
2022-08-14T11:30:51.144Z,2.00
2022-08-14T11:33:34.854Z,2.30
2022-08-14T11:36:57.081Z,2.38
2022-08-14T11:39:37.066Z,2.80
2022-08-14T11:42:58.548Z,2.10
2022-08-14T11:45:37.157Z,2.55
2022-08-14T11:49:03.049Z,2.00
2022-08-14T11:51:50.830Z,2.25
2022-08-14T11:54:42.449Z,2.90
2022-08-14T11:57:30.504Z,4.63
2022-08-14T12:00:19.589Z,2.20
2022-08-14T12:03:06.771Z,2.55
2022-08-14T12:05:53.600Z,1.83
2022-08-14T12:08:40.913Z,1.90
2022-08-14T12:11:43.179Z,2.22
2022-08-14T12:14:35.528Z,2.00
2022-08-14T12:17:26.522Z,2.00
2022-08-14T12:20:15.424Z,2.05
2022-08-14T12:23:25.714Z,2.17
2022-08-14T12:26:38.888Z,1.98
2022-08-14T12:29:25.911Z,1.92
2022-08-14T12:32:13.739Z,2.80
2022-08-14T12:35:01.826Z,1.90
2022-08-14T12:37:50.632Z,2.00
2022-08-14T12:40:47.635Z,4.25
2022-08-14T12:43:34.758Z,2.40
2022-08-14T12:46:30.440Z,2.53
2022-08-14T12:49:18.920Z,2.13
2022-08-14T12:52:16.812Z,1.80
2022-08-14T12:55:09.484Z,2.00
2022-08-14T12:58:00.966Z,2.10
2022-08-14T13:01:16.476Z,5.50
2022-08-14T13:04:10.007Z,1.90
2022-08-14T13:06:57.123Z,2.13
2022-08-14T13:09:44.938Z,2.13
2022-08-14T13:12:37.267Z,1.92
2022-08-14T13:15:33.922Z,2.83
2022-08-14T13:18:23.527Z,1.90
2022-08-14T13:21:15.037Z,2.10
2022-08-14T13:24:04.820Z,1.90
2022-08-14T13:26:56.144Z,4.13
2022-08-14T13:29:46.521Z,2.67
2022-08-14T13:32:35.633Z,3.20
2022-08-14T13:35:23.788Z,2.53
2022-08-14T13:38:13.526Z,3.85
2022-08-14T13:41:00.244Z,3.92
2022-08-14T13:43:59.288Z,2.10
2022-08-14T13:46:46.885Z,2.50
2022-08-14T13:49:34.307Z,3.97
2022-08-14T13:52:52.254Z,2.30
2022-08-14T13:55:32.175Z,2.70
2022-08-14T13:58:33.509Z,2.00
2022-08-14T14:01:22.305Z,2.08
2022-08-14T14:04:19.642Z,2.20
2022-08-14T14:07:13.029Z,2.40
2022-08-14T14:10:06.376Z,2.17
2022-08-14T14:12:56.222Z,2.38
2022-08-14T14:15:57.959Z,1.80
2022-08-14T14:18:52.095Z,2.00
2022-08-14T14:21:40.318Z,1.95
2022-08-14T14:24:34.745Z,2.03
2022-08-14T14:27:40.254Z,2.15
2022-08-14T14:30:52.569Z,2.75
2022-08-14T14:33:47.651Z,2.45
2022-08-14T14:36:37.217Z,2.50
2022-08-14T14:39:28.893Z,4.35
2022-08-14T14:42:18.461Z,3.17
2022-08-14T14:45:20.444Z,3.30
2022-08-14T14:48:10.122Z,3.28
2022-08-14T14:51:01.415Z,3.50
2022-08-14T14:53:48.321Z,3.50
2022-08-14T14:56:47.471Z,4.80
2022-08-14T14:59:38.965Z,4.93
2022-08-14T15:02:34.658Z,8.20
2022-08-14T15:05:28.413Z,7.50
2022-08-14T15:08:16.881Z,4.37
2022-08-14T15:11:13.877Z,4.27
2022-08-14T15:14:02.515Z,4.17
2022-08-14T15:17:10.577Z,4.47
2022-08-14T15:19:57.452Z,3.77
2022-08-14T15:22:51.291Z,4.40
2022-08-14T15:25:38.259Z,3.97
2022-08-14T15:28:25.668Z,4.33
2022-08-14T15:31:12.833Z,3.87
2022-08-14T15:34:46.018Z,7.50
2022-08-14T15:37:23.119Z,3.67
2022-08-14T15:40:22.092Z,4.57
2022-08-14T15:43:10.852Z,4.13
2022-08-14T15:45:59.952Z,4.47
2022-08-14T15:48:47.592Z,6.03
2022-08-14T15:51:35.501Z,4.47
2022-08-14T15:54:31.215Z,4.00
2022-08-14T15:57:21.165Z,4.00
2022-08-14T16:00:40.511Z,4.60
2022-08-14T16:03:37.271Z,4.90
2022-08-14T16:06:30.369Z,4.30
2022-08-14T16:09:16.840Z,4.23
2022-08-14T16:12:06.149Z,4.27
2022-08-14T16:14:53.973Z,4.07
2022-08-14T16:17:43.980Z,3.87
2022-08-14T16:20:41.611Z,5.80
2022-08-14T16:23:35.901Z,5.30
2022-08-14T16:26:29.929Z,4.60
2022-08-14T16:29:20.290Z,3.87
2022-08-14T16:32:35.628Z,4.77
2022-08-14T16:35:20.318Z,5.23
2022-08-14T16:38:19.182Z,4.27
2022-08-14T16:41:26.353Z,6.13
2022-08-14T16:44:21.939Z,4.00
2022-08-14T16:47:22.534Z,4.83
2022-08-14T16:50:11.465Z,4.30
2022-08-14T16:53:00.659Z,4.17
2022-08-14T16:55:50.960Z,4.30
2022-08-14T16:58:41.019Z,4.73
2022-08-14T17:01:27.949Z,4.40
2022-08-14T17:04:24.790Z,4.30
2022-08-14T17:07:13.400Z,5.00
2022-08-14T17:10:09.815Z,4.87
2022-08-14T17:13:17.696Z,4.57
2022-08-14T17:16:07.536Z,6.70
2022-08-14T17:19:01.073Z,4.67
2022-08-14T17:21:51.540Z,15.30
2022-08-14T17:24:56.699Z,9.67
2022-08-14T17:27:46.322Z,4.77
2022-08-14T17:30:50.224Z,7.97
2022-08-14T17:33:40.951Z,4.23
2022-08-14T17:36:32.971Z,9.20
2022-08-14T17:39:24.624Z,6.30
2022-08-14T17:42:13.293Z,5.73
2022-08-14T17:45:02.116Z,9.40
2022-08-14T17:47:49.104Z,5.93
2022-08-14T17:50:59.546Z,7.97
2022-08-14T17:53:53.375Z,8.97
2022-08-14T17:56:50.357Z,5.37
2022-08-14T17:59:39.542Z,4.83
2022-08-14T18:02:31.424Z,5.17
2022-08-14T18:05:23.712Z,5.27
2022-08-14T18:08:34.232Z,4.50
2022-08-14T18:11:45.453Z,10.53
2022-08-14T18:14:48.723Z,4.73
2022-08-14T18:17:40.703Z,6.73
2022-08-14T18:21:24.560Z,6.10
2022-08-14T18:23:33.866Z,5.63
2022-08-14T18:26:36.864Z,4.70
2022-08-14T18:29:26.365Z,6.20
2022-08-14T18:32:47.288Z,6.00
2022-08-14T18:35:45.947Z,5.50
2022-08-14T18:38:55.293Z,6.23
2022-08-14T18:41:47.417Z,5.50
2022-08-14T18:45:12.923Z,6.40
2022-08-14T18:48:28.416Z,5.77
2022-08-14T18:51:45.237Z,6.27
2022-08-14T18:54:38.371Z,6.07
2022-08-14T18:57:25.153Z,11.43
2022-08-14T19:00:50.918Z,5.50
2022-08-14T19:03:58.757Z,10.13
2022-08-14T19:06:56.355Z,5.93
2022-08-14T19:09:54.771Z,7.90
2022-08-14T19:13:05.326Z,6.40
2022-08-14T19:16:08.110Z,6.00
2022-08-14T19:19:03.957Z,8.80
2022-08-14T19:21:56.868Z,6.70
2022-08-14T19:24:44.131Z,8.57
2022-08-14T19:27:37.470Z,6.67
2022-08-14T19:30:25.883Z,5.40
2022-08-14T19:33:53.724Z,5.40
2022-08-14T19:37:04.720Z,8.47
2022-08-14T19:39:54.308Z,7.00
2022-08-14T19:42:46.479Z,9.27
2022-08-14T19:45:33.827Z,6.20
2022-08-14T19:48:21.063Z,10.60
2022-08-14T19:51:10.406Z,5.50
2022-08-14T19:54:06.434Z,9.13
2022-08-14T19:57:00.669Z,7.40
2022-08-14T19:59:57.151Z,8.63
2022-08-14T20:02:48.865Z,8.60
2022-08-14T20:05:43.068Z,9.13
2022-08-14T20:11:07.295Z,6.00
2022-08-14T20:12:04.444Z,5.77
2022-08-14T20:14:51.737Z,9.00
2022-08-14T20:17:40.631Z,11.13
2022-08-14T20:20:31.804Z,6.27
2022-08-14T20:23:20.160Z,7.97
2022-08-14T20:26:30.519Z,7.53
2022-08-14T20:29:30.241Z,11.23
2022-08-14T20:32:17.661Z,5.73
2022-08-14T20:35:08.598Z,6.37
2022-08-14T20:38:29.773Z,4.70
2022-08-14T20:41:12.416Z,5.20
2022-08-14T20:44:18.333Z,7.90
2022-08-14T20:47:15.016Z,5.63
2022-08-14T20:50:20.195Z,5.93
2022-08-14T20:53:35.725Z,5.97
2022-08-14T20:56:28.918Z,6.00
2022-08-14T20:59:18.167Z,4.50
2022-08-14T21:05:03.383Z,7.00
2022-08-14T21:07:51.602Z,5.07
2022-08-14T21:10:44.222Z,5.33
2022-08-14T21:14:19.672Z,6.27
2022-08-14T21:16:58.093Z,4.80
2022-08-14T21:19:47.076Z,6.27
2022-08-14T21:22:38.670Z,5.27
2022-08-14T21:25:25.975Z,5.17
2022-08-14T21:28:27.683Z,6.20
2022-08-14T21:31:17.372Z,4.87
2022-08-14T21:34:26.971Z,5.00
2022-08-14T21:37:11.962Z,4.53
2022-08-14T21:40:00.570Z,4.60
2022-08-14T21:42:47.692Z,8.23
2022-08-14T21:45:35.671Z,4.80
2022-08-14T21:48:25.196Z,5.47
2022-08-14T21:51:56.149Z,4.13
2022-08-14T21:54:32.010Z,7.33
2022-08-14T21:58:45.809Z,4.87
2022-08-14T22:00:39.476Z,4.23
2022-08-14T22:03:35.563Z,4.40
2022-08-14T22:06:28.660Z,11.93
2022-08-14T22:09:16.624Z,4.00
2022-08-14T22:12:10.259Z,5.30
2022-08-14T22:14:58.114Z,3.57
2022-08-14T22:17:52.320Z,3.70
2022-08-14T22:20:42.187Z,4.20
2022-08-14T22:23:29.358Z,6.27
2022-08-14T22:26:21.815Z,3.53
2022-08-14T22:29:09.286Z,3.60
2022-08-14T22:31:57.748Z,3.80
2022-08-14T22:34:48.123Z,4.10
2022-08-14T22:37:35.403Z,7.07
2022-08-14T22:41:03.835Z,3.50
2022-08-14T22:43:35.239Z,6.53
2022-08-14T22:46:22.592Z,8.80
2022-08-14T22:49:16.867Z,3.47
2022-08-14T22:52:32.622Z,3.30
2022-08-14T22:55:19.873Z,4.30
2022-08-14T22:58:08.313Z,3.30
2022-08-14T23:00:55.194Z,3.93
2022-08-14T23:03:43.367Z,5.60
2022-08-14T23:07:02.667Z,6.87
2022-08-14T23:09:41.204Z,6.17
2022-08-14T23:12:45.977Z,3.30
2022-08-14T23:15:43.275Z,3.43
2022-08-14T23:18:30.319Z,2.80
2022-08-14T23:21:16.960Z,3.10
2022-08-14T23:24:06.981Z,9.73
2022-08-14T23:26:55.321Z,3.20
2022-08-14T23:29:41.951Z,3.40
2022-08-14T23:32:30.200Z,3.00
2022-08-14T23:35:19.717Z,5.03
2022-08-14T23:38:29.970Z,2.77
2022-08-14T23:41:18.068Z,3.73
2022-08-14T23:44:05.979Z,6.73
2022-08-14T23:46:57.053Z,4.00
2022-08-14T23:50:00.587Z,8.83
2022-08-14T23:53:04.159Z,14.40
2022-08-14T23:55:57.257Z,4.47
2022-08-14T23:58:49.103Z,5.20
